Time;durP1;ratioP1;P1;durP2;ratioP2;P2;SDS_P1;SDS_P2;PMS_P1;PMS_P2;Temp;Humidity;BMP_temperature;BMP_pressure;BME280_temperature;BME280_humidity;BME280_pressure;Samples;Min_cycle;Max_cycle;Signal;HPM_P1;HPM_P2
2022/12/22 03:26:50;;;;;;;1.55;1.45;;;;;;;8.80;50.64;94329.03;5017688;28;20108;-70
2022/12/22 03:29:16;;;;;;;1.80;1.70;;;;;;;8.91;50.25;94314.38;5013512;28;20067;-70
2022/12/22 03:31:41;;;;;;;1.45;1.35;;;;;;;8.95;49.68;94310.31;5015919;28;20081;-70
2022/12/22 03:34:06;;;;;;;0.40;0.40;;;;;;;8.98;49.46;94319.75;5005159;28;20089;-70
2022/12/22 03:36:32;;;;;;;1.60;1.50;;;;;;;8.54;50.47;94309.31;5008841;28;20556;-70
2022/12/22 03:38:57;;;;;;;1.02;0.50;;;;;;;8.71;49.86;94300.22;5012078;28;20118;-70
2022/12/22 03:46:50;;;;;;;0.30;0.30;;;;;;;8.27;51.77;94298.59;5000570;28;20088;-70
2022/12/22 03:49:18;;;;;;;0.60;0.60;;;;;;;8.17;51.87;94284.88;5004459;28;20069;-70
2022/12/22 03:51:45;;;;;;;1.15;1.15;;;;;;;8.27;51.74;94284.53;5001271;28;20144;-70
2022/12/22 03:54:12;;;;;;;46.92;2.22;;;;;;;5.77;58.83;94288.09;5005068;28;20112;-70
2022/12/22 03:56:37;;;;;;;39.85;2.28;;;;;;;7.30;54.41;94272.63;5004376;28;20135;-70
2022/12/22 03:59:03;;;;;;;3.67;1.40;;;;;;;6.97;56.00;94271.31;5005384;28;20090;-70
2022/12/22 04:01:29;;;;;;;2.83;2.05;;;;;;;7.35;54.50;94267.56;5005512;28;20214;-70
2022/12/22 04:03:54;;;;;;;1.55;0.63;;;;;;;7.78;54.02;94266.72;5010972;28;20498;-70
2022/12/22 04:06:19;;;;;;;1.75;1.65;;;;;;;7.01;55.31;94259.31;5004538;28;20620;-70
2022/12/22 04:08:45;;;;;;;4.93;0.60;;;;;;;5.94;59.76;94265.00;5009417;28;20437;-70
2022/12/22 04:13:58;;;;;;;5.97;0.60;;;;;;;7.04;56.79;94254.69;5013477;28;20098;-70
2022/12/22 04:16:23;;;;;;;3.45;1.20;;;;;;;6.82;56.81;94252.84;5010348;28;20091;-70
2022/12/22 04:18:49;;;;;;;0.70;0.70;;;;;;;7.29;56.37;94249.81;5012467;28;20175;-70
2022/12/22 04:21:15;;;;;;;9.07;1.13;;;;;;;6.21;58.85;94261.88;5005501;28;20082;-70
2022/12/22 04:23:40;;;;;;;10.75;0.95;;;;;;;6.66;57.23;94238.00;5006808;28;20310;-70
2022/12/22 04:26:05;;;;;;;25.73;2.58;;;;;;;6.03;59.46;94251.69;5009778;28;20095;-70
2022/12/22 04:28:31;;;;;;;14.60;1.48;;;;;;;7.29;56.18;94239.22;5008420;28;20067;-70
2022/12/22 04:30:56;;;;;;;5.38;2.42;;;;;;;7.16;56.15;94242.56;5002208;28;20114;-70
2022/12/22 04:33:22;;;;;;;29.00;1.90;;;;;;;6.90;57.66;94238.66;5008719;28;20446;-70
2022/12/22 04:35:47;;;;;;;5.43;2.08;;;;;;;6.62;58.67;94240.22;5017724;28;20072;-70
2022/12/22 04:38:12;;;;;;;6.55;2.05;;;;;;;7.10;56.91;94238.84;5009470;28;20098;-70
2022/12/22 04:40:38;;;;;;;5.88;1.17;;;;;;;6.56;58.92;94240.16;5014454;28;20098;-70
2022/12/22 04:43:03;;;;;;;4.10;1.10;;;;;;;6.24;59.18;94233.28;5007555;28;20177;-70
2022/12/22 04:45:29;;;;;;;23.67;1.77;;;;;;;5.16;63.08;94237.03;5010634;28;20114;-70
2022/12/22 04:47:54;;;;;;;25.40;1.80;;;;;;;6.29;60.51;94231.88;5006603;28;20080;-70
2022/12/22 04:50:19;;;;;;;26.48;2.30;;;;;;;5.52;62.16;94222.34;5004342;28;20457;-70
2022/12/22 04:52:45;;;;;;;54.15;3.22;;;;;;;4.64;66.39;94230.63;5005639;28;20673;-70
2022/12/22 04:55:10;;;;;;;4.72;1.25;;;;;;;5.12;65.17;94216.44;5008047;28;20087;-70
2022/12/22 04:57:36;;;;;;;1.63;0.75;;;;;;;6.30;60.48;94217.66;5007765;28;20385;-70
2022/12/22 05:00:02;;;;;;;4.00;1.30;;;;;;;6.85;58.79;94210.16;5006008;28;20099;-70
2022/12/22 05:02:28;;;;;;;26.83;1.60;;;;;;;6.79;57.71;94200.31;5009482;28;20574;-70
2022/12/22 05:04:53;;;;;;;20.63;1.70;;;;;;;6.56;60.12;94211.88;5010039;28;20426;-70
2022/12/22 05:07:19;;;;;;;1.33;1.20;;;;;;;6.69;59.73;94197.97;5006350;28;20096;-70
2022/12/22 05:09:44;;;;;;;25.27;2.13;;;;;;;5.67;62.57;94203.03;5009206;28;20097;-70
2022/12/22 05:14:54;;;;;;;1.63;1.35;;;;;;;6.14;61.27;94193.09;5014029;28;20108;-71
2022/12/22 05:17:20;;;;;;;1.75;1.58;;;;;;;6.76;59.53;94213.91;5006949;28;20458;-70
2022/12/22 05:19:45;;;;;;;1.17;1.02;;;;;;;5.04;65.24;94198.84;5008741;28;20092;-70
2022/12/22 05:22:10;;;;;;;1.20;1.10;;;;;;;6.07;61.85;94194.81;5012361;28;20628;-70
2022/12/22 05:24:36;;;;;;;1.27;1.00;;;;;;;6.30;61.24;94201.81;5009072;28;20082;-70
2022/12/22 05:27:01;;;;;;;1.48;1.30;;;;;;;3.90;68.13;94195.75;5008249;28;20165;-70
2022/12/22 05:29:26;;;;;;;1.10;1.10;;;;;;;5.05;65.34;94201.31;5001411;28;20109;-70
2022/12/22 05:31:52;;;;;;;1.98;1.15;;;;;;;4.99;65.92;94195.94;5007765;28;20073;-70
2022/12/22 05:34:17;;;;;;;0.90;0.85;;;;;;;6.29;60.65;94192.25;5005701;28;20454;-70
2022/12/22 05:36:43;;;;;;;1.38;1.00;;;;;;;5.27;64.36;94198.03;5004779;28;20107;-70
2022/12/22 05:39:08;;;;;;;1.10;1.00;;;;;;;5.61;63.02;94188.75;5001815;28;20136;-70
2022/12/22 05:41:33;;;;;;;1.92;1.00;;;;;;;4.75;65.82;94190.66;5004642;28;20076;-70
2022/12/22 05:43:59;;;;;;;2.95;0.80;;;;;;;4.64;66.68;94184.00;5006010;28;20219;-70
2022/12/22 05:46:24;;;;;;;1.35;1.25;;;;;;;6.04;61.64;94179.34;5004896;28;20105;-70
2022/12/22 05:48:50;;;;;;;4.60;0.98;;;;;;;6.02;61.28;94165.50;5002864;28;20519;-70
2022/12/22 05:51:15;;;;;;;1.08;0.98;;;;;;;6.99;58.35;94168.75;5003347;28;20099;-70
2022/12/22 05:53:40;;;;;;;1.83;0.98;;;;;;;7.41;56.69;94166.19;5002995;28;20094;-70
2022/12/22 05:56:06;;;;;;;1.23;1.13;;;;;;;6.27;60.16;94166.00;5008668;28;20563;-70
2022/12/22 05:58:32;;;;;;;2.13;1.30;;;;;;;5.65;62.92;94168.94;5003629;28;20605;-69
2022/12/22 06:00:58;;;;;;;3.72;0.80;;;;;;;6.53;60.12;94159.38;5008103;28;20080;-70
2022/12/22 06:03:27;;;;;;;1.77;1.02;;;;;;;6.90;58.73;94156.63;5008737;28;20082;-69
2022/12/22 06:05:52;;;;;;;0.70;0.70;;;;;;;6.04;60.64;94159.03;5007044;28;20133;-70
2022/12/22 06:08:18;;;;;;;0.90;0.90;;;;;;;6.37;60.71;94165.69;5007181;28;20070;-69
2022/12/22 06:10:43;;;;;;;0.60;0.60;;;;;;;7.11;57.79;94160.28;5006414;28;20094;-70
2022/12/22 06:13:08;;;;;;;0.47;0.47;;;;;;;6.81;58.22;94155.97;5008413;28;20072;-69
2022/12/22 06:15:34;;;;;;;1.17;0.90;;;;;;;7.12;57.33;94152.16;5007840;28;20491;-70
2022/12/22 06:17:59;;;;;;;4.28;0.50;;;;;;;6.58;59.73;94157.00;5003545;28;20618;-69
2022/12/22 06:20:25;;;;;;;1.02;0.38;;;;;;;7.20;57.97;94148.53;5002340;28;20073;-70
2022/12/22 06:22:50;;;;;;;1.55;0.35;;;;;;;6.04;60.13;94151.09;5004798;28;20142;-70
2022/12/22 06:25:15;;;;;;;0.22;0.22;;;;;;;6.14;62.02;94150.81;5002189;28;20450;-69
2022/12/22 06:27:41;;;;;;;0.95;0.60;;;;;;;7.40;56.99;94137.25;5004866;28;20380;-69
2022/12/22 06:30:07;;;;;;;1.65;1.55;;;;;;;7.74;56.23;94126.84;5005028;28;20116;-70
2022/12/22 06:32:36;;;;;;;0.57;0.57;;;;;;;6.56;59.29;94121.16;5001224;28;20433;-68
2022/12/22 06:35:01;;;;;;;;;;;;;;;7.65;55.79;94124.34;5003463;28;20593;-69
2022/12/22 06:37:26;;;;;;;0.70;0.40;;;;;;;7.43;57.27;94120.16;5005587;28;19990;-69
2022/12/22 06:39:52;;;;;;;0.60;0.60;;;;;;;7.84;55.66;94110.59;5001323;28;20534;-69
2022/12/22 06:45:01;;;;;;;1.33;0.60;;;;;;;7.00;56.63;94106.03;5004036;28;20609;-69
2022/12/22 06:47:26;;;;;;;0.40;0.40;;;;;;;7.33;57.59;94113.41;5005005;28;20086;-70
2022/12/22 06:49:51;;;;;;;0.60;0.60;;;;;;;6.49;60.85;94100.75;4997495;28;20127;-70
2022/12/22 06:52:17;;;;;;;1.10;0.28;;;;;;;5.22;65.67;94109.66;5015035;28;20079;-70
2022/12/22 06:54:42;;;;;;;2.05;0.52;;;;;;;5.34;66.14;94112.66;5006694;28;20100;-70
2022/12/22 06:57:08;;;;;;;1.30;0.50;;;;;;;4.27;70.88;94128.41;5008055;28;20072;-70
2022/12/22 06:59:33;;;;;;;2.92;0.40;;;;;;;4.74;69.55;94151.28;5003381;28;20113;-71
2022/12/22 07:01:58;;;;;;;0.75;0.50;;;;;;;3.74;75.17;94173.78;4994484;28;20093;-71
2022/12/22 07:04:24;;;;;;;0.32;0.32;;;;;;;3.73;76.42;94176.56;4999055;28;20082;-73
2022/12/22 07:06:49;;;;;;;0.52;0.32;;;;;;;3.25;76.99;94172.91;5000141;28;20114;-71
2022/12/22 07:09:15;;;;;;;0.17;0.17;;;;;;;3.36;76.92;94165.63;5002266;28;20277;-70
2022/12/22 07:11:40;;;;;;;0.20;0.20;;;;;;;3.36;77.17;94174.34;5006884;28;20129;-71
2022/12/22 07:14:06;;;;;;;0.95;0.70;;;;;;;3.89;74.65;94166.00;4996193;28;20154;-69
2022/12/22 07:16:31;;;;;;;0.75;0.65;;;;;;;3.91;74.05;94174.53;5000096;28;20622;-69
2022/12/22 07:18:56;;;;;;;1.17;0.50;;;;;;;4.56;71.95;94171.69;4999880;28;20102;-70
2022/12/22 07:21:22;;;;;;;0.38;0.30;;;;;;;4.60;71.30;94166.88;4996362;28;20145;-70
2022/12/22 07:23:47;;;;;;;0.30;0.30;;;;;;;4.69;69.95;94173.72;5002792;28;20084;-70
2022/12/22 07:26:13;;;;;;;0.30;0.30;;;;;;;4.75;70.36;94180.13;5001044;28;20103;-70
2022/12/22 07:28:39;;;;;;;1.00;0.68;;;;;;;4.33;72.53;94169.84;4995638;28;20084;-70
2022/12/22 07:31:04;;;;;;;3.05;0.55;;;;;;;4.92;69.19;94182.63;4996727;28;20491;-69
2022/12/22 07:33:30;;;;;;;0.28;0.28;;;;;;;4.54;71.86;94183.41;4998588;28;20075;-70
2022/12/22 07:36:04;;;;;;;0.47;0.32;;;;;;;4.64;70.87;94175.25;4996080;28;20279;-69
2022/12/22 07:38:34;;;;;;;1.42;0.98;;;;;;;4.22;71.91;94196.59;5000204;28;20162;-70
2022/12/22 07:40:59;;;;;;;0.65;0.47;;;;;;;3.75;71.13;94175.44;4998036;28;20564;-71
2022/12/22 07:43:25;;;;;;;0.73;0.40;;;;;;;3.49;74.13;94170.41;4998016;28;20115;-73
2022/12/22 07:45:50;;;;;;;0.52;0.32;;;;;;;3.78;72.69;94176.91;5004861;28;20097;-74
2022/12/22 07:51:04;;;;;;;0.68;0.50;;;;;;;3.39;73.21;94186.34;4998918;28;20113;-72
2022/12/22 07:53:30;;;;;;;0.52;0.22;;;;;;;3.23;74.14;94174.88;4977930;28;20076;-76
2022/12/22 07:55:55;;;;;;;0.57;0.55;;;;;;;3.14;73.34;94189.84;5003487;28;20574;-74
2022/12/22 07:58:21;;;;;;;0.73;0.57;;;;;;;3.03;74.46;94192.84;5002382;28;20110;-75
2022/12/22 08:00:46;;;;;;;2.08;0.30;;;;;;;2.95;74.02;94184.94;4999902;28;20116;-71
2022/12/22 08:03:12;;;;;;;0.60;0.60;;;;;;;2.09;77.42;94202.59;4999286;28;20106;-71
2022/12/22 08:05:37;;;;;;;1.85;0.50;;;;;;;2.89;75.62;94200.38;4997249;28;20188;-72
2022/12/22 08:08:03;;;;;;;0.22;0.22;;;;;;;2.75;74.34;94191.34;5000279;28;20097;-68
2022/12/22 08:10:28;;;;;;;0.60;0.47;;;;;;;3.14;73.61;94205.63;5000672;28;20142;-71
2022/12/22 08:12:54;;;;;;;0.38;0.35;;;;;;;3.02;74.65;94210.41;5010041;28;20080;-67
2022/12/22 08:15:19;;;;;;;0.85;0.38;;;;;;;2.86;77.06;94210.44;5005805;28;20474;-69
2022/12/22 08:17:44;;;;;;;0.32;0.30;;;;;;;2.82;75.83;94217.81;5005649;28;20110;-71
2022/12/22 08:20:10;;;;;;;0.38;0.32;;;;;;;2.19;78.47;94220.00;5000102;28;20092;-68
2022/12/22 08:22:35;;;;;;;0.20;0.20;;;;;;;2.70;77.15;94229.63;5001807;28;20105;-70
2022/12/22 08:25:01;;;;;;;0.43;0.43;;;;;;;2.99;76.57;94231.78;4998097;28;20421;-67
2022/12/22 08:27:37;;;;;;;0.65;0.35;;;;;;;2.73;77.88;94239.81;5006839;28;20111;-68
2022/12/22 08:30:02;;;;;;;1.27;0.55;;;;;;;3.17;76.04;94226.34;4999628;28;20105;-67
2022/12/22 08:32:28;;;;;;;0.30;0.30;;;;;;;3.33;75.04;94235.19;5000414;28;20084;-67
2022/12/22 08:34:53;;;;;;;0.20;0.20;;;;;;;2.50;78.58;94243.06;5003367;28;20587;-69
2022/12/22 08:37:21;;;;;;;0.90;0.47;;;;;;;2.88;76.84;94243.44;5001071;28;20095;-71
2022/12/22 08:39:48;;;;;;;0.20;0.20;;;;;;;2.85;77.02;94253.44;5001273;28;20600;-68
2022/12/22 08:42:13;;;;;;;1.17;0.35;;;;;;;2.90;76.94;94244.09;5003760;28;20200;-70
2022/12/22 08:44:39;;;;;;;0.63;0.20;;;;;;;2.95;76.25;94248.88;5000860;28;20299;-68
2022/12/22 08:47:04;;;;;;;0.43;0.43;;;;;;;3.20;75.48;94245.41;5000931;28;20098;-69
2022/12/22 08:49:30;;;;;;;0.45;0.40;;;;;;;2.95;75.37;94246.25;5004039;28;20077;-67
2022/12/22 08:51:55;;;;;;;1.75;1.38;;;;;;;2.62;77.17;94260.16;5009093;28;20284;-71
2022/12/22 08:54:21;;;;;;;0.10;0.10;;;;;;;2.42;77.95;94256.19;5001326;28;20484;-67
2022/12/22 08:56:46;;;;;;;0.20;0.20;;;;;;;2.43;78.49;94256.03;5008972;28;20068;-67
2022/12/22 08:59:12;;;;;;;0.75;0.30;;;;;;;3.14;75.61;94267.94;5004370;28;20135;-66
2022/12/22 09:01:38;;;;;;;0.10;0.10;;;;;;;2.72;77.03;94274.97;5003737;28;20119;-68
2022/12/22 09:04:05;;;;;;;0.30;0.30;;;;;;;2.91;76.25;94269.41;5003092;28;20064;-66
2022/12/22 09:06:31;;;;;;;1.33;1.23;;;;;;;3.14;75.04;94266.13;5008566;28;20089;-69
2022/12/22 09:09:00;;;;;;;0.85;0.85;;;;;;;3.25;75.16;94270.25;5005612;28;20079;-68
2022/12/22 09:11:27;;;;;;;5.05;1.33;;;;;;;2.65;76.03;94282.66;5007218;28;20505;-65
2022/12/22 09:13:53;;;;;;;27.58;1.33;;;;;;;3.03;76.42;94290.13;5004336;28;20364;-69
2022/12/22 09:16:19;;;;;;;9.95;1.35;;;;;;;3.22;75.41;94298.66;5010987;28;20459;-68
2022/12/22 09:18:44;;;;;;;12.55;3.05;;;;;;;3.27;75.25;94296.38;5019906;28;20099;-69
2022/12/22 09:21:10;;;;;;;3.42;0.88;;;;;;;3.39;75.02;94305.59;5011420;28;20355;-66
2022/12/22 09:23:35;;;;;;;44.53;1.63;;;;;;;3.62;74.49;94312.00;5011336;28;20529;-68
2022/12/22 09:26:08;;;;;;;55.08;3.53;;;;;;;3.84;72.86;94312.31;5011937;28;20106;-66
2022/12/22 09:28:34;;;;;;;27.73;1.27;;;;;;;3.81;73.28;94321.34;5004003;28;20384;-68
2022/12/22 09:31:00;;;;;;;6.72;1.08;;;;;;;3.77;73.29;94322.66;5002392;28;20581;-66
2022/12/22 09:33:25;;;;;;;17.63;1.45;;;;;;;4.02;72.46;94333.97;5005521;28;20138;-69
2022/12/22 09:35:51;;;;;;;11.27;0.80;;;;;;;3.45;73.87;94337.50;5007974;28;20072;-69
2022/12/22 09:38:16;;;;;;;62.47;1.60;;;;;;;3.55;74.44;94328.44;5004651;28;20117;-70
2022/12/22 09:40:42;;;;;;;0.70;0.70;;;;;;;3.89;72.94;94341.59;5009679;28;20105;-67
2022/12/22 09:43:09;;;;;;;0.90;0.60;;;;;;;4.06;72.35;94342.38;5006222;28;20091;-70
2022/12/22 09:45:34;;;;;;;0.50;0.50;;;;;;;3.92;72.88;94352.59;5004648;28;20489;-70
2022/12/22 09:48:00;;;;;;;0.28;0.28;;;;;;;3.93;71.94;94350.78;4999825;28;20331;-71
2022/12/22 09:50:25;;;;;;;0.40;0.40;;;;;;;3.85;71.83;94359.53;4999385;28;20154;-70
2022/12/22 09:52:56;;;;;;;0.47;0.47;;;;;;;3.76;72.97;94358.72;4996963;28;20116;-67
2022/12/22 09:55:27;;;;;;;0.80;0.80;;;;;;;3.40;74.14;94356.38;4998798;28;20200;-67
2022/12/22 09:57:53;;;;;;;1.17;1.10;;;;;;;3.23;75.73;94390.56;5002248;28;20123;-73
2022/12/22 10:00:20;;;;;;;1.00;1.00;;;;;;;3.29;75.36;94375.94;5003636;28;20430;-70
2022/12/22 10:03:06;;;;;;;1.42;1.33;;;;;;;3.17;75.80;94378.09;5000978;28;20428;-69
2022/12/22 10:05:43;;;;;;;1.08;1.05;;;;;;;3.14;76.11;94394.19;4998457;28;20542;-70
2022/12/22 10:08:16;;;;;;;3.00;1.58;;;;;;;3.36;75.50;94400.63;5003527;28;20569;-68
2022/12/22 10:10:41;;;;;;;1.33;1.23;;;;;;;3.17;76.52;94405.19;5000993;28;20182;-70
2022/12/22 10:13:17;;;;;;;2.17;1.30;;;;;;;2.61;78.71;94424.09;5002906;28;20161;-67
2022/12/22 10:15:43;;;;;;;2.70;1.33;;;;;;;2.67;79.50;94421.81;5012106;28;20613;-68
2022/12/22 10:18:13;;;;;;;1.33;1.05;;;;;;;2.68;78.75;94433.97;5002134;28;20092;-70
2022/12/22 10:20:39;;;;;;;1.70;1.60;;;;;;;2.16;80.81;94441.75;5004365;28;20092;-70
2022/12/22 10:23:27;;;;;;;1.35;1.27;;;;;;;2.78;78.77;94442.56;5005328;28;20465;-69
2022/12/22 10:25:55;;;;;;;2.10;2.00;;;;;;;2.04;82.02;94456.09;4999012;28;20591;-70
2022/12/22 10:28:29;;;;;;;2.00;1.90;;;;;;;1.97;81.64;94445.38;5003556;28;20466;-68
2022/12/22 10:31:13;;;;;;;2.00;1.90;;;;;;;2.22;80.37;94466.56;4988700;28;20618;-69
2022/12/22 10:33:39;;;;;;;2.45;2.10;;;;;;;2.51;79.06;94460.16;4998665;28;20138;-67
2022/12/22 10:36:04;;;;;;;1.70;1.60;;;;;;;2.59;79.57;94460.19;4998893;28;20103;-67
2022/12/22 10:38:34;;;;;;;3.28;2.25;;;;;;;2.45;79.02;94469.50;4996205;28;20105;-67
2022/12/22 10:41:07;;;;;;;2.17;1.98;;;;;;;2.58;78.71;94466.44;5001906;28;20655;-66
2022/12/22 10:43:38;;;;;;;3.17;1.80;;;;;;;3.09;76.79;94472.75;5002588;28;20591;-69
2022/12/22 10:46:03;;;;;;;4.63;3.30;;;;;;;3.39;75.61;94481.03;5002747;28;20544;-68
2022/12/22 10:48:33;;;;;;;2.75;2.38;;;;;;;3.06;76.35;94463.34;5002537;28;20140;-67
2022/12/22 10:50:59;;;;;;;2.28;1.90;;;;;;;2.74;78.09;94476.22;5001539;28;20125;-69
2022/12/22 10:53:57;;;;;;;2.15;1.70;;;;;;;3.06;76.32;94460.72;5001566;28;20085;-68
2022/12/22 10:56:24;;;;;;;1.80;1.70;;;;;;;3.01;77.09;94460.38;5009267;28;20083;-69
2022/12/22 10:59:04;;;;;;;2.00;1.90;;;;;;;3.55;74.85;94461.88;5010572;28;20122;-67
2022/12/22 11:01:34;;;;;;;2.75;2.20;;;;;;;2.93;77.04;94463.00;4998057;28;20460;-66
2022/12/22 11:04:20;;;;;;;1.80;1.70;;;;;;;3.31;75.77;94476.59;4998817;28;20074;-70
2022/12/22 11:06:46;;;;;;;1.80;1.70;;;;;;;2.73;77.78;94482.44;5003320;28;20187;-66
2022/12/22 11:09:11;;;;;;;1.98;1.88;;;;;;;2.84;77.91;94489.25;5000916;28;20494;-69
2022/12/22 11:11:48;;;;;;;2.20;2.10;;;;;;;3.04;76.59;94504.78;4996050;28;20429;-67
2022/12/22 11:14:40;;;;;;;2.17;2.08;;;;;;;2.96;77.22;94502.13;4982776;28;20180;-67
2022/12/22 11:17:24;;;;;;;2.30;1.90;;;;;;;2.85;77.42;94509.28;4998317;28;20075;-66
2022/12/22 11:20:29;;;;;;;2.40;2.17;;;;;;;2.75;78.29;94504.16;4998973;28;20108;-66
2022/12/22 11:23:15;;;;;;;2.90;2.60;;;;;;;2.75;77.79;94516.47;4995295;28;20621;-66
2022/12/22 11:26:14;;;;;;;2.55;2.25;;;;;;;2.33;78.97;94532.00;4999611;28;20392;-68
2022/12/22 11:28:52;;;;;;;;;;;;;;;2.32;79.73;94530.34;5006105;28;20615;-68
2022/12/22 11:31:42;;;;;;;2.78;2.50;;;;;;;2.93;76.50;94531.34;4998178;28;19989;-69
2022/12/22 11:34:34;;;;;;;3.53;2.63;;;;;;;2.84;77.67;94531.31;5002940;28;20108;-70
2022/12/22 11:37:39;;;;;;;3.70;3.25;;;;;;;3.04;76.97;94544.22;5003965;28;20087;-71
2022/12/22 11:40:19;;;;;;;5.13;4.18;;;;;;;1.83;80.89;94555.19;5001092;28;20317;-70
2022/12/22 11:42:44;;;;;;;5.60;4.53;;;;;;;1.95;80.93;94558.44;5009437;28;20097;-70
2022/12/22 11:45:35;;;;;;;6.27;5.20;;;;;;;2.11;80.64;94557.75;5003002;28;20708;-69
2022/12/22 11:48:11;;;;;;;5.25;4.22;;;;;;;1.98;81.40;94546.81;5000977;28;20095;-69
2022/12/22 11:50:43;;;;;;;6.03;3.92;;;;;;;1.98;81.92;94562.56;5004723;28;20131;-67
2022/12/22 11:53:41;;;;;;;6.65;5.13;;;;;;;2.17;80.28;94566.00;4981545;28;20509;-69
2022/12/22 11:56:22;;;;;;;6.13;5.15;;;;;;;1.61;82.29;94561.72;5000416;28;20142;-68
2022/12/22 11:59:25;;;;;;;6.15;4.85;;;;;;;1.58;82.95;94581.19;4996956;28;20110;-65
2022/12/22 12:02:02;;;;;;;7.63;5.55;;;;;;;1.36;83.84;94582.38;4995993;28;20093;-68
2022/12/22 12:04:57;;;;;;;5.20;4.32;;;;;;;1.61;83.07;94582.69;5002376;28;20110;-67
2022/12/22 12:07:33;;;;;;;8.57;6.05;;;;;;;1.24;83.92;94597.47;4990917;28;20588;-68
2022/12/22 12:10:02;;;;;;;6.35;5.03;;;;;;;1.44;83.32;94584.28;5001719;28;20100;-67
2022/12/22 12:12:44;;;;;;;;;;;;;;;1.55;83.23;94597.22;4997757;28;20085;-67
2022/12/22 12:15:28;;;;;;;6.90;4.57;;;;;;;1.85;81.77;94595.25;5007171;28;20569;-76
2022/12/22 12:18:02;;;;;;;6.07;4.80;;;;;;;2.27;79.72;94588.56;5011061;28;20599;-77
2022/12/22 12:20:43;;;;;;;7.93;4.70;;;;;;;2.62;77.86;94585.22;5007028;28;20115;-76
2022/12/22 12:23:53;;;;;;;6.15;4.80;;;;;;;2.48;77.99;94611.06;5008266;28;20255;-76
2022/12/22 12:26:24;;;;;;;6.22;4.68;;;;;;;2.39;77.79;94607.53;5008138;28;20104;-77
2022/12/22 12:29:00;;;;;;;6.22;5.00;;;;;;;2.39;77.97;94604.09;5008474;28;20520;-76
2022/12/22 12:31:30;;;;;;;6.47;4.38;;;;;;;2.15;78.84;94613.44;5002307;28;20092;-73
2022/12/22 12:33:59;;;;;;;6.03;4.72;;;;;;;2.31;77.83;94617.19;5010599;28;20383;-76
2022/12/22 12:36:30;;;;;;;6.93;5.40;;;;;;;2.43;76.88;94615.13;5005130;28;20192;-76
2022/12/22 12:39:17;;;;;;;8.05;5.07;;;;;;;2.24;78.01;94619.56;5014222;28;20125;-77
2022/12/22 12:42:04;;;;;;;7.10;5.07;;;;;;;2.09;78.92;94630.59;5006133;28;20642;-75
2022/12/22 12:44:34;;;;;;;8.90;6.43;;;;;;;1.96;78.18;94630.13;5003967;28;20655;-76
2022/12/22 12:47:06;;;;;;;8.55;5.85;;;;;;;2.10;78.38;94626.16;4996815;28;20095;-77
2022/12/22 12:49:34;;;;;;;10.85;7.70;;;;;;;1.84;78.72;94632.16;5016173;28;20482;-77
2022/12/22 12:52:04;;;;;;;8.50;5.80;;;;;;;2.50;76.61;94631.94;5003356;28;20065;-76
2022/12/22 12:54:29;;;;;;;;;;;;;;;2.42;76.62;94637.97;4994028;28;20098;-76
2022/12/22 12:57:09;;;;;;;7.10;5.00;;;;;;;2.40;76.98;94639.91;5008487;28;20352;-75
2022/12/22 12:59:41;;;;;;;9.10;6.68;;;;;;;2.20;77.28;94654.97;4986870;28;20173;-76
2022/12/22 13:02:33;;;;;;;9.80;6.57;;;;;;;2.10;77.87;94644.53;5005447;28;20464;-75
2022/12/22 13:05:11;;;;;;;9.85;5.85;;;;;;;2.17;77.43;94644.78;5006815;28;20103;-75
2022/12/22 13:08:09;;;;;;;10.90;6.30;;;;;;;2.05;77.23;94642.38;4982327;28;20510;-76
2022/12/22 13:10:50;;;;;;;8.00;5.38;;;;;;;2.24;76.91;94645.81;4986164;28;20302;-75
2022/12/22 13:13:24;;;;;;;10.90;5.90;;;;;;;2.08;77.58;94649.13;5004949;28;20090;-75
2022/12/22 13:15:58;;;;;;;9.00;6.43;;;;;;;1.87;78.03;94655.47;5000988;28;20131;-76
2022/12/22 13:18:24;;;;;;;9.85;5.40;;;;;;;1.96;77.79;94651.97;5006792;28;20104;-76
2022/12/22 13:21:04;;;;;;;11.53;8.13;;;;;;;1.93;77.43;94657.50;5004867;28;20501;-76
2022/12/22 13:23:38;;;;;;;8.98;5.32;;;;;;;2.10;76.51;94653.25;5007689;28;20342;-75
2022/12/22 13:26:08;;;;;;;9.52;6.63;;;;;;;1.78;78.48;94665.06;5004170;28;20486;-75
2022/12/22 13:28:35;;;;;;;9.10;6.05;;;;;;;1.75;78.06;94668.81;5004050;28;20096;-76
2022/12/22 13:31:21;;;;;;;8.05;5.35;;;;;;;1.83;77.65;94690.84;5005761;28;20182;-76
2022/12/22 13:33:59;;;;;;;9.93;6.18;;;;;;;2.16;76.31;94679.88;5001897;28;20462;-76
2022/12/22 13:36:25;;;;;;;7.55;5.45;;;;;;;2.46;75.34;94683.97;5006213;28;20113;-76
2022/12/22 13:39:01;;;;;;;9.10;6.57;;;;;;;2.58;74.51;94671.41;4970718;28;20106;-76
2022/12/22 13:41:27;;;;;;;6.68;4.55;;;;;;;2.18;75.74;94677.94;5001078;28;20126;-76
2022/12/22 13:43:55;;;;;;;6.60;4.72;;;;;;;2.39;74.82;94683.72;4974200;28;20659;-76
2022/12/22 13:46:20;;;;;;;7.85;4.97;;;;;;;2.44;73.65;94675.41;4987503;28;20128;-75
2022/12/22 13:48:47;;;;;;;5.82;4.38;;;;;;;2.71;72.80;94678.94;4985260;28;20417;-76
2022/12/22 13:51:23;;;;;;;8.70;5.07;;;;;;;2.37;72.98;94675.19;4996924;28;20621;-76
2022/12/22 13:53:56;;;;;;;7.00;5.00;;;;;;;2.45;72.71;94673.63;5001794;28;20108;-76
2022/12/22 13:56:44;;;;;;;5.55;3.95;;;;;;;2.61;72.33;94663.25;5003921;28;20171;-76
2022/12/22 13:59:53;;;;;;;5.47;4.00;;;;;;;2.94;71.48;94677.63;4993271;28;20153;-76
2022/12/22 14:02:19;;;;;;;9.63;4.72;;;;;;;2.65;71.84;94684.78;5011761;28;20136;-77
2022/12/22 14:05:05;;;;;;;7.28;4.60;;;;;;;2.34;72.67;94679.91;5013969;28;20120;-77
2022/12/22 14:07:30;;;;;;;6.32;4.63;;;;;;;2.74;71.71;94678.63;5002795;28;20109;-76
2022/12/22 14:09:56;;;;;;;8.48;5.30;;;;;;;2.45;71.54;94684.94;5008605;28;20577;-77
2022/12/22 14:12:25;;;;;;;9.48;5.30;;;;;;;2.95;70.61;94692.41;5005980;28;20089;-76
2022/12/22 14:14:51;;;;;;;8.63;5.40;;;;;;;2.49;72.51;94680.22;4995696;28;20108;-77
2022/12/22 14:17:26;;;;;;;8.88;5.57;;;;;;;2.68;71.54;94688.94;5009037;28;20484;-77
2022/12/22 14:19:54;;;;;;;8.07;4.55;;;;;;;2.64;71.35;94691.84;5008855;28;20130;-76
2022/12/22 14:22:26;;;;;;;6.88;4.93;;;;;;;2.59;71.46;94704.59;5006281;28;20100;-77
2022/12/22 14:24:53;;;;;;;7.03;4.65;;;;;;;3.06;69.39;94697.41;4992029;28;20571;-76
2022/12/22 14:27:52;;;;;;;7.00;4.78;;;;;;;3.04;69.51;94688.88;5008787;28;20128;-77
2022/12/22 14:30:19;;;;;;;6.40;4.20;;;;;;;2.85;70.03;94695.97;5004378;28;20105;-76
2022/12/22 14:32:49;;;;;;;8.43;5.03;;;;;;;2.77;70.14;94693.25;5016084;28;20079;-77
2022/12/22 14:35:20;;;;;;;8.73;5.28;;;;;;;2.75;69.61;94703.09;5003214;28;20129;-76
2022/12/22 14:37:50;;;;;;;7.47;4.55;;;;;;;2.96;69.35;94704.59;5004502;28;20182;-77
2022/12/22 14:40:38;;;;;;;8.30;4.97;;;;;;;3.50;67.54;94703.66;5002784;28;20110;-76
2022/12/22 14:43:32;;;;;;;9.63;6.07;;;;;;;3.22;68.16;94711.66;4986818;28;20104;-77
2022/12/22 14:46:05;;;;;;;10.20;5.22;;;;;;;3.37;67.87;94709.31;4996871;28;20580;-77
2022/12/22 14:48:34;;;;;;;9.18;5.70;;;;;;;3.58;67.30;94705.50;4985498;28;20174;-77
2022/12/22 14:50:59;;;;;;;7.75;5.03;;;;;;;3.20;67.63;94713.63;4999050;28;20145;-77
2022/12/22 14:53:30;;;;;;;5.95;4.68;;;;;;;3.23;67.30;94722.03;4972130;28;20075;-77
2022/12/22 14:55:55;;;;;;;7.10;4.95;;;;;;;3.26;67.98;94718.25;4988115;28;20463;-76
2022/12/22 14:58:24;;;;;;;8.85;5.97;;;;;;;2.99;68.97;94735.84;4998451;28;20103;-77
2022/12/22 15:01:15;;;;;;;9.20;5.50;;;;;;;3.21;68.81;94728.44;5012368;28;20122;-77
2022/12/22 15:03:40;;;;;;;8.57;5.40;;;;;;;3.29;68.23;94731.13;5000732;28;20299;-76
2022/12/22 15:06:25;;;;;;;8.23;5.03;;;;;;;3.19;68.37;94733.84;4969822;28;20157;-77
2022/12/22 15:08:53;;;;;;;9.77;6.93;;;;;;;3.63;66.38;94730.38;4998670;28;20227;-77
2022/12/22 15:11:19;;;;;;;11.55;6.63;;;;;;;3.52;67.17;94730.63;4987464;28;20106;-76
2022/12/22 15:13:45;;;;;;;10.90;6.80;;;;;;;3.86;66.49;94719.31;4984888;28;20474;-77
2022/12/22 15:16:12;;;;;;;9.30;5.90;;;;;;;3.32;68.16;94715.03;5008800;28;20075;-77
2022/12/22 15:18:38;;;;;;;12.02;7.32;;;;;;;3.67;66.73;94717.72;4987119;28;20190;-77
2022/12/22 15:21:03;;;;;;;10.68;6.72;;;;;;;4.15;65.52;94706.75;4998552;28;20094;-77
2022/12/22 15:23:29;;;;;;;10.80;6.57;;;;;;;3.81;66.09;94705.75;4987034;28;20111;-77
2022/12/22 15:25:54;;;;;;;10.65;7.10;;;;;;;4.23;64.16;94704.13;4986575;28;20099;-77
2022/12/22 15:28:19;;;;;;;12.48;7.18;;;;;;;4.47;63.73;94701.69;5006367;28;20073;-77
2022/12/22 15:30:45;;;;;;;12.63;8.10;;;;;;;4.62;62.77;94704.53;4985792;28;20112;-77
2022/12/22 15:33:12;;;;;;;14.32;9.82;;;;;;;4.90;62.39;94699.75;4983583;28;20443;-77
2022/12/22 15:35:37;;;;;;;14.65;9.55;;;;;;;5.11;61.33;94695.84;5003891;28;20211;-77
2022/12/22 15:38:08;;;;;;;15.20;9.18;;;;;;;5.27;61.05;94700.25;4983978;28;20503;-77